Time;durP1;ratioP1;P1;durP2;ratioP2;P2;SDS_P1;SDS_P2;PMS_P1;PMS_P2;Temp;Humidity;BMP_temperature;BMP_pressure;BME280_temperature;BME280_humidity;BME280_pressure;Samples;Min_cycle;Max_cycle;Signal;HPM_P1;HPM_P2
2022/12/14 02:00:08;;;;;;;11.83;5.00;;;;;;;-0.09;64.18;100161.23;1673479;83;21487;-60
2022/12/14 02:02:36;;;;;;;14.90;5.28;;;;;;;-0.10;64.12;100159.10;1663992;83;21550;-60
2022/12/14 02:05:05;;;;;;;11.88;4.62;;;;;;;-0.08;64.08;100165.51;1663289;84;21061;-60
2022/12/14 02:07:31;;;;;;;11.05;5.08;;;;;;;-0.08;64.19;100168.92;1678025;84;21828;-60
2022/12/14 02:10:02;;;;;;;12.65;4.40;;;;;;;-0.03;64.14;100173.92;1675122;83;21004;-61
2022/12/14 02:12:33;;;;;;;12.13;6.67;;;;;;;-0.02;64.06;100175.16;1682493;83;21566;-60
2022/12/14 02:15:00;;;;;;;14.25;5.95;;;;;;;0.01;64.20;100177.23;1683290;83;21078;-60
2022/12/14 02:17:27;;;;;;;11.28;4.97;;;;;;;0.04;64.17;100173.23;1685940;83;21062;-60
2022/12/14 02:19:54;;;;;;;12.80;5.87;;;;;;;0.03;64.13;100171.08;1654919;85;21243;-60
2022/12/14 02:22:57;;;;;;;12.37;5.60;;;;;;;0.05;64.04;100178.34;1642683;84;21151;-60
2022/12/14 02:25:41;;;;;;;11.68;5.37;;;;;;;0.05;64.02;100186.11;1633615;84;21135;-59
2022/12/14 02:28:20;;;;;;;11.28;5.47;;;;;;;0.04;63.99;100188.30;1664793;84;21095;-60
2022/12/14 02:30:58;;;;;;;10.75;4.70;;;;;;;0.00;64.08;100189.33;1662156;84;21164;-60
2022/12/14 02:33:51;;;;;;;11.12;4.37;;;;;;;-0.02;63.95;100197.15;1651070;85;21514;-59
2022/12/14 02:36:42;;;;;;;11.53;4.20;;;;;;;-0.04;63.94;100201.98;1670340;84;21058;-58
2022/12/14 02:39:37;;;;;;;11.12;3.67;;;;;;;-0.08;63.97;100211.61;1663642;84;21082;-59
2022/12/14 02:42:10;;;;;;;10.17;4.80;;;;;;;-0.12;63.68;100208.73;1651555;84;21103;-60
2022/12/14 02:44:52;;;;;;;7.65;3.02;;;;;;;-0.19;63.69;100231.39;1651479;84;21044;-60
2022/12/14 02:47:37;;;;;;;7.87;3.40;;;;;;;-0.24;67.40;100235.91;1657121;84;21505;-61
2022/12/14 02:50:24;;;;;;;9.70;3.52;;;;;;;-0.33;71.22;100231.55;1659717;84;21041;-60
2022/12/14 02:53:04;;;;;;;8.20;3.12;;;;;;;-0.32;72.35;100231.92;1659193;84;21561;-59
2022/12/14 02:55:39;;;;;;;7.40;2.72;;;;;;;-0.33;72.68;100237.55;1651825;84;21155;-59
2022/12/14 02:58:10;;;;;;;8.93;3.72;;;;;;;-0.36;73.24;100231.66;1657101;84;21045;-59
2022/12/14 03:00:37;;;;;;;6.10;1.90;;;;;;;-0.33;72.99;100238.84;1626455;86;22200;-59
2022/12/14 03:03:04;;;;;;;6.37;2.30;;;;;;;-0.30;72.81;100236.58;1617237;87;21103;-59
2022/12/14 03:05:31;;;;;;;5.33;1.85;;;;;;;-0.30;72.17;100241.33;1634496;86;21176;-60
2022/12/14 03:08:01;;;;;;;6.60;2.05;;;;;;;-0.29;71.68;100239.11;1656536;85;21114;-60
2022/12/14 03:10:49;;;;;;;5.65;1.70;;;;;;;-0.31;71.44;100243.97;1656187;85;21019;-60
2022/12/14 03:14:07;;;;;;;6.00;2.20;;;;;;;-0.31;71.04;100235.75;1643959;85;21232;-60
2022/12/14 03:16:40;;;;;;;5.72;1.90;;;;;;;-0.32;70.56;100248.73;1633268;85;21071;-60
2022/12/14 03:19:28;;;;;;;5.90;1.92;;;;;;;-0.30;70.30;100251.66;1668516;84;21126;-60
2022/12/14 03:21:58;;;;;;;6.65;2.50;;;;;;;-0.35;69.24;100247.12;1657033;85;21119;-61
2022/12/14 03:24:30;;;;;;;5.03;1.75;;;;;;;-0.44;68.51;100255.20;1665238;84;21119;-59
2022/12/14 03:27:05;;;;;;;6.05;1.77;;;;;;;-0.52;67.45;100259.37;1663400;84;21097;-59
2022/12/14 03:29:37;;;;;;;5.65;2.17;;;;;;;-0.60;67.21;100260.92;1661598;85;21123;-60
2022/12/14 03:44:47;;;;;;;6.33;2.33;;;;;;;0.27;64.77;100262.44;1790264;78;23851;-60
2022/12/14 03:47:53;;;;;;;8.08;3.10;;;;;;;0.33;64.46;100265.22;1754981;81;21005;-60
2022/12/14 03:50:24;;;;;;;7.00;2.77;;;;;;;0.25;64.49;100262.09;1754833;81;21090;-59
2022/12/14 03:53:10;;;;;;;8.83;3.10;;;;;;;0.12;64.26;100259.16;1719255;81;20923;-59
2022/12/14 03:56:09;;;;;;;6.10;2.35;;;;;;;0.01;64.17;100254.37;1722548;81;21624;-59
2022/12/14 03:58:43;;;;;;;7.92;3.60;;;;;;;-0.11;64.08;100251.81;1704358;83;21014;-60
2022/12/14 04:01:45;;;;;;;7.80;2.83;;;;;;;-0.22;63.90;100257.40;1670324;83;21032;-59
2022/12/14 04:04:44;;;;;;;8.50;2.80;;;;;;;-0.27;63.80;100256.73;1696458;83;21218;-62
2022/12/14 04:07:31;;;;;;;8.08;3.17;;;;;;;-0.32;63.48;100268.13;1631839;84;21012;-62
2022/12/14 04:10:03;;;;;;;8.55;4.00;;;;;;;-0.44;62.89;100275.88;1694168;83;21110;-62
2022/12/14 04:21:29;;;;;;;9.20;2.90;;;;;;;-0.78;62.49;100299.88;1707579;82;21065;-59
2022/12/14 04:26:57;;;;;;;8.83;3.85;;;;;;;-0.96;62.38;100300.50;1697875;82;21023;-60
2022/12/14 04:32:36;;;;;;;8.10;3.08;;;;;;;-1.02;62.48;100309.77;1704393;82;21082;-58
2022/12/14 04:35:34;;;;;;;9.15;2.83;;;;;;;-1.06;62.42;100322.37;1710281;82;21104;-59
2022/12/14 04:38:09;;;;;;;9.90;4.33;;;;;;;-1.14;62.27;100324.77;1724896;82;21105;-60
2022/12/14 04:40:44;;;;;;;13.13;5.55;;;;;;;-1.18;62.18;100327.48;1712811;82;21082;-59
2022/12/14 04:43:14;;;;;;;12.45;3.90;;;;;;;-1.19;62.03;100336.98;1708764;82;21079;-60
2022/12/14 04:45:47;;;;;;;10.98;4.17;;;;;;;-1.21;61.89;100330.16;1693281;83;21832;-60
2022/12/14 04:48:41;;;;;;;11.93;4.03;;;;;;;-1.24;61.63;100336.73;1704121;82;21019;-59
2022/12/14 04:51:13;;;;;;;9.40;3.40;;;;;;;-1.29;61.41;100340.75;1705899;82;21521;-62
2022/12/14 04:53:41;;;;;;;12.37;3.50;;;;;;;-1.37;61.17;100342.73;1708236;83;21125;-60
2022/12/14 04:56:13;;;;;;;9.35;3.08;;;;;;;-1.45;61.04;100344.24;1709091;83;21118;-61
2022/12/14 04:58:39;;;;;;;9.23;3.20;;;;;;;-1.51;60.85;100347.03;1708684;82;21598;-61
2022/12/14 05:01:53;;;;;;;7.87;2.83;;;;;;;-1.57;60.83;100353.66;1744304;80;21018;-61
2022/12/14 05:04:38;;;;;;;9.58;3.15;;;;;;;-1.62;60.69;100354.25;1744104;81;21134;-61
2022/12/14 05:07:37;;;;;;;7.92;3.17;;;;;;;-1.66;60.63;100364.24;1744513;80;21013;-62
2022/12/14 05:10:17;;;;;;;9.18;5.05;;;;;;;-1.70;60.47;100364.36;1745215;80;21082;-60
2022/12/14 05:12:58;;;;;;;8.83;2.33;;;;;;;-1.73;60.26;100364.87;1699623;82;21199;-59
2022/12/14 05:15:33;;;;;;;8.08;2.42;;;;;;;-1.78;60.20;100364.16;1697201;83;21113;-61
2022/12/14 05:18:04;;;;;;;7.15;2.60;;;;;;;-1.79;59.94;100374.94;1745778;80;21513;-61
2022/12/14 05:20:32;;;;;;;9.33;4.12;;;;;;;-1.84;59.90;100378.09;1743924;80;21121;-61
2022/12/14 05:22:59;;;;;;;9.38;3.45;;;;;;;-1.89;60.09;100384.66;1741730;80;21067;-61
2022/12/14 05:25:25;;;;;;;10.18;3.10;;;;;;;-1.94;60.00;100380.53;1743179;80;21241;-60
2022/12/14 05:27:53;;;;;;;7.53;3.30;;;;;;;-1.95;59.96;100390.02;1736885;80;21047;-60
2022/12/14 05:30:19;;;;;;;8.05;3.50;;;;;;;-1.95;59.92;100400.33;1748135;80;21094;-60
2022/12/14 05:32:46;;;;;;;12.33;4.87;;;;;;;-1.97;59.91;100405.12;1700739;82;21050;-60
2022/12/14 05:35:13;;;;;;;10.43;3.70;;;;;;;-1.99;59.80;100405.61;1745735;80;21052;-60
2022/12/14 05:37:41;;;;;;;8.88;3.22;;;;;;;-1.98;59.83;100403.45;1745073;80;21246;-60
2022/12/14 05:40:09;;;;;;;6.90;2.80;;;;;;;-1.99;59.80;100413.34;1737333;82;21553;-61
2022/12/14 05:42:37;;;;;;;6.03;2.20;;;;;;;-2.01;59.69;100414.67;1742448;80;21038;-61
2022/12/14 05:45:05;;;;;;;7.62;2.80;;;;;;;-2.03;59.68;100419.46;1736371;80;21099;-60
2022/12/14 05:47:31;;;;;;;6.85;3.27;;;;;;;-2.08;59.64;100427.34;1736314;80;21086;-61
2022/12/14 05:49:58;;;;;;;8.65;3.65;;;;;;;-2.13;59.65;100424.88;1755817;80;21878;-60
2022/12/14 05:52:25;;;;;;;7.47;3.47;;;;;;;-2.13;59.66;100429.20;1697252;82;21625;-60
2022/12/14 05:54:52;;;;;;;7.35;2.70;;;;;;;-2.16;59.66;100434.44;1695370;82;21117;-60
2022/12/14 05:57:19;;;;;;;8.00;2.67;;;;;;;-2.21;59.54;100431.97;1688495;82;21023;-60
2022/12/14 05:59:46;;;;;;;6.30;2.02;;;;;;;-2.22;59.49;100438.00;1693045;83;21050;-60
2022/12/14 06:02:13;;;;;;;8.35;2.62;;;;;;;-2.30;59.59;100443.38;1695577;82;21214;-60
2022/12/14 06:04:40;;;;;;;6.22;2.40;;;;;;;-2.30;59.59;100448.53;1705656;82;20988;-60
2022/12/14 06:07:10;;;;;;;8.35;2.85;;;;;;;-2.30;59.59;100448.53;1700297;82;21595;-60
2022/12/14 06:09:37;;;;;;;7.45;4.00;;;;;;;-2.35;59.36;100450.38;1703495;83;21050;-60
2022/12/14 06:12:04;;;;;;;7.42;2.55;;;;;;;-2.35;59.60;100452.96;1705134;82;21604;-61
2022/12/14 06:14:31;;;;;;;5.80;2.12;;;;;;;-2.37;59.62;100461.18;1697465;83;21846;-60
2022/12/14 06:16:57;;;;;;;8.75;2.40;;;;;;;-2.38;59.59;100459.47;1695635;82;21079;-60
2022/12/14 06:19:24;;;;;;;7.28;2.67;;;;;;;-2.38;59.62;100468.95;1696904;82;21410;-60
2022/12/14 06:21:50;;;;;;;8.30;3.25;;;;;;;-2.45;59.65;100472.12;1700881;83;21117;-60
2022/12/14 06:24:17;;;;;;;8.23;2.95;;;;;;;-2.45;59.65;100472.12;1699652;83;21012;-60
2022/12/14 06:26:44;;;;;;;8.55;2.55;;;;;;;-2.41;59.73;100485.31;1703615;82;21143;-60
2022/12/14 06:29:16;;;;;;;7.40;3.30;;;;;;;-2.43;59.73;100485.35;1708198;83;21060;-60
2022/12/14 06:31:43;;;;;;;6.70;2.87;;;;;;;-2.43;59.73;100485.35;1702957;82;21640;-61
2022/12/14 06:34:10;;;;;;;7.85;2.30;;;;;;;-2.39;59.91;100494.30;1709260;82;21068;-60
2022/12/14 06:36:39;;;;;;;8.78;3.52;;;;;;;-2.39;59.91;100494.30;1704186;83;21097;-60
2022/12/14 06:39:12;;;;;;;11.55;4.12;;;;;;;-2.35;59.78;100500.64;1702873;82;21223;-61
2022/12/14 06:41:39;;;;;;;9.33;3.72;;;;;;;-2.35;59.78;100500.64;1700429;82;21035;-60
2022/12/14 06:44:09;;;;;;;8.68;3.20;;;;;;;-2.30;59.76;100505.23;1702696;83;21137;-60
2022/12/14 06:46:36;;;;;;;8.48;2.75;;;;;;;-2.30;59.76;100505.23;1705306;83;21130;-60
2022/12/14 06:49:03;;;;;;;6.78;2.47;;;;;;;-2.26;59.71;100509.87;1704384;82;21102;-61
2022/12/14 06:51:30;;;;;;;8.68;3.22;;;;;;;-2.27;59.71;100511.61;1701208;82;21150;-60
2022/12/14 06:53:57;;;;;;;8.00;3.05;;;;;;;-2.22;59.74;100517.08;1700629;82;21163;-60
2022/12/14 06:56:25;;;;;;;8.83;3.50;;;;;;;-2.18;59.56;100532.44;1700313;83;21106;-60
2022/12/14 06:58:54;;;;;;;9.90;4.08;;;;;;;-2.15;59.23;100528.50;1704471;82;21097;-60
2022/12/14 07:01:21;;;;;;;9.95;3.77;;;;;;;-2.15;59.23;100528.50;1704808;83;21098;-60
2022/12/14 07:03:53;;;;;;;8.50;3.10;;;;;;;-2.09;59.34;100536.06;1704455;83;21561;-60
2022/12/14 07:06:24;;;;;;;8.95;2.72;;;;;;;-2.01;59.64;100532.46;1702232;82;21091;-66
2022/12/14 07:08:55;;;;;;;12.43;3.02;;;;;;;-1.91;59.75;100537.78;1698887;82;21059;-68
2022/12/14 07:11:23;;;;;;;7.75;2.45;;;;;;;-1.79;59.82;100540.48;1699209;83;21091;-66
2022/12/14 07:13:49;;;;;;;5.92;2.12;;;;;;;-1.68;59.50;100546.21;1699864;83;21490;-68
2022/12/14 07:16:23;;;;;;;5.83;2.30;;;;;;;-1.61;59.55;100557.22;1703740;82;22013;-64
2022/12/14 07:18:50;;;;;;;10.18;3.52;;;;;;;-1.53;59.47;100550.08;1697659;82;21106;-66
2022/12/14 07:21:18;;;;;;;10.30;5.05;;;;;;;-1.40;59.00;100548.86;1691527;82;21114;-67
2022/12/14 07:23:46;;;;;;;8.95;3.20;;;;;;;-1.40;59.00;100548.86;1698596;82;21107;-67
2022/12/14 07:26:16;;;;;;;10.23;3.17;;;;;;;-1.38;59.49;100560.02;1703250;82;21193;-67
2022/12/14 07:28:43;;;;;;;8.75;3.22;;;;;;;-1.38;59.49;100560.02;1698612;82;21190;-68
2022/12/14 07:31:22;;;;;;;11.78;3.45;;;;;;;-1.31;59.17;100562.81;1696661;83;21098;-67
2022/12/14 07:33:52;;;;;;;8.53;2.90;;;;;;;-1.28;59.16;100574.78;1704331;83;21368;-66
2022/12/14 07:36:19;;;;;;;9.30;4.03;;;;;;;-1.24;59.11;100579.44;1704575;83;21060;-66
2022/12/14 07:38:47;;;;;;;7.87;3.20;;;;;;;-1.24;59.11;100579.44;1700460;83;21059;-70
2022/12/14 07:41:22;;;;;;;7.40;2.95;;;;;;;-1.25;58.81;100585.02;1707729;82;21188;-70
2022/12/14 07:43:49;;;;;;;8.35;3.33;;;;;;;-1.29;59.11;100584.72;1697643;83;21071;-66
2022/12/14 07:46:22;;;;;;;9.08;3.55;;;;;;;-1.27;59.06;100581.64;1703466;83;21083;-69
2022/12/14 07:48:51;;;;;;;8.53;4.10;;;;;;;-1.23;59.00;100592.27;1700632;83;21115;-67
2022/12/14 07:51:20;;;;;;;10.95;3.55;;;;;;;-1.16;59.04;100596.82;1704780;83;21118;-67
2022/12/14 07:53:47;;;;;;;8.45;4.00;;;;;;;-1.16;59.04;100596.82;1696697;82;21232;-67
2022/12/14 07:56:16;;;;;;;13.28;4.50;;;;;;;-1.11;58.84;100598.83;1707719;82;21061;-68
2022/12/14 07:58:43;;;;;;;8.73;4.00;;;;;;;-1.06;59.27;100611.20;1706154;83;21546;-68
2022/12/14 08:01:22;;;;;;;10.85;4.20;;;;;;;-0.96;58.99;100610.05;1704753;82;21555;-69
2022/12/14 08:03:57;;;;;;;10.70;4.20;;;;;;;-0.87;58.81;100606.80;1698889;83;22606;-66
2022/12/14 08:06:26;;;;;;;11.20;4.53;;;;;;;-0.82;58.51;100614.80;1690908;82;21941;-68
2022/12/14 08:08:53;;;;;;;9.75;4.22;;;;;;;-0.77;58.29;100614.22;1696533;83;21063;-65
2022/12/14 08:11:21;;;;;;;9.43;4.50;;;;;;;-0.77;58.29;100614.22;1696855;83;21162;-67
2022/12/14 08:13:53;;;;;;;12.58;4.65;;;;;;;-0.79;58.46;100622.89;1690188;82;21545;-68
2022/12/14 08:16:20;;;;;;;10.08;4.62;;;;;;;-0.74;58.77;100615.85;1695461;83;21364;-68
2022/12/14 08:18:46;;;;;;;9.78;4.20;;;;;;;-0.63;58.79;100619.42;1695169;83;21199;-68
2022/12/14 08:21:14;;;;;;;12.90;4.35;;;;;;;-0.56;58.39;100628.23;1699680;83;21027;-68
2022/12/14 08:23:41;;;;;;;8.30;3.98;;;;;;;-0.51;58.13;100622.09;1696084;82;21656;-66
2022/12/14 08:26:08;;;;;;;11.95;5.47;;;;;;;-0.51;58.04;100639.73;1692816;83;21545;-65
2022/12/14 08:28:35;;;;;;;10.88;5.12;;;;;;;-0.43;57.92;100631.30;1732900;80;21020;-71
2022/12/14 08:31:10;;;;;;;10.08;4.53;;;;;;;-0.39;57.66;100623.86;1728202;81;21131;-70
2022/12/14 08:33:38;;;;;;;10.58;4.35;;;;;;;-0.45;58.04;100628.38;1741519;82;21098;-71
2022/12/14 08:36:15;;;;;;;12.70;4.78;;;;;;;-0.41;58.15;100631.25;1702655;83;21031;-71
2022/12/14 08:38:42;;;;;;;11.00;5.65;;;;;;;-0.36;58.06;100630.66;1707382;83;21056;-69
2022/12/14 08:41:11;;;;;;;11.68;5.78;;;;;;;-0.23;57.88;100634.56;1700448;83;21083;-69
2022/12/14 08:43:39;;;;;;;10.25;5.20;;;;;;;-0.16;57.71;100637.80;1698256;83;21214;-68
2022/12/14 08:46:06;;;;;;;13.90;5.95;;;;;;;-0.14;57.82;100632.59;1702962;82;21047;-71
2022/12/14 08:48:33;;;;;;;11.48;5.20;;;;;;;-0.11;58.05;100633.78;1704285;82;21118;-69
2022/12/14 08:51:04;;;;;;;9.90;4.83;;;;;;;-0.07;58.03;100633.65;1700599;82;21572;-68
2022/12/14 08:53:31;;;;;;;11.73;4.97;;;;;;;-0.02;58.07;100639.52;1706835;83;21119;-70
2022/12/14 08:55:58;;;;;;;10.48;4.65;;;;;;;0.00;57.93;100638.18;1704700;83;21769;-70
2022/12/14 08:58:25;;;;;;;12.23;5.12;;;;;;;0.01;57.99;100639.02;1687059;83;21083;-69
2022/12/14 09:01:07;;;;;;;9.15;5.15;;;;;;;0.03;57.98;100644.98;1704064;82;21162;-68
2022/12/14 09:03:34;;;;;;;13.22;6.40;;;;;;;0.01;57.86;100641.14;1692142;82;21032;-68
2022/12/14 09:06:03;;;;;;;12.40;5.37;;;;;;;-0.10;58.36;100648.39;1708451;82;21078;-69
2022/12/14 09:08:31;;;;;;;12.40;5.08;;;;;;;-0.14;58.35;100652.82;1702051;83;21630;-70
2022/12/14 09:11:00;;;;;;;12.98;5.22;;;;;;;-0.15;58.61;100647.27;1697286;82;21110;-70
2022/12/14 09:13:27;;;;;;;10.00;5.12;;;;;;;-0.10;58.65;100649.69;1706710;83;21106;-70
2022/12/14 09:16:06;;;;;;;12.47;5.55;;;;;;;-0.07;58.54;100645.72;1746098;80;22373;-72
2022/12/14 09:18:33;;;;;;;13.48;6.25;;;;;;;0.05;58.20;100647.06;1755841;80;21042;-71
2022/12/14 09:21:00;;;;;;;15.25;7.70;;;;;;;0.11;58.11;100647.71;1741564;80;21089;-70
2022/12/14 09:23:27;;;;;;;15.95;8.58;;;;;;;0.12;57.92;100642.95;1747310;81;21036;-68
2022/12/14 09:26:14;;;;;;;13.10;7.17;;;;;;;0.15;57.56;100648.03;1706687;82;21038;-68
2022/12/14 09:28:43;;;;;;;13.28;6.97;;;;;;;0.16;57.78;100647.11;1704638;83;21059;-71
2022/12/14 09:31:12;;;;;;;13.48;6.10;;;;;;;0.18;57.55;100651.81;1704248;82;21054;-69
2022/12/14 09:33:39;;;;;;;12.55;7.00;;;;;;;0.20;57.07;100657.37;1704404;83;21600;-69
2022/12/14 09:36:14;;;;;;;10.68;5.00;;;;;;;0.17;57.18;100659.62;1707459;82;20992;-70
2022/12/14 09:38:42;;;;;;;12.47;5.53;;;;;;;0.14;56.42;100664.90;1698497;82;21049;-71
2022/12/14 09:41:35;;;;;;;12.45;5.50;;;;;;;0.09;56.46;100678.43;1703459;82;21058;-70
2022/12/14 09:44:24;;;;;;;11.38;5.20;;;;;;;0.03;56.47;100666.97;1704020;82;21133;-70
2022/12/14 09:47:19;;;;;;;12.75;5.03;;;;;;;0.02;56.77;100673.03;1695375;82;21194;-74
2022/12/14 09:50:06;;;;;;;13.58;5.42;;;;;;;0.01;56.76;100670.90;1734623;80;21108;-70
2022/12/14 09:52:54;;;;;;;9.98;5.55;;;;;;;-0.03;56.75;100668.02;1735643;80;21121;-69
2022/12/14 09:55:29;;;;;;;10.38;4.72;;;;;;;0.01;56.89;100667.02;1735636;80;21067;-72
2022/12/14 09:58:19;;;;;;;12.47;4.45;;;;;;;0.05;57.02;100667.34;1726359;80;21094;-70
2022/12/14 10:00:49;;;;;;;11.75;5.65;;;;;;;0.10;56.99;100668.03;1737811;80;21095;-70
2022/12/14 10:03:45;;;;;;;12.80;5.83;;;;;;;0.16;56.62;100677.33;1704833;82;21513;-67
2022/12/14 10:06:42;;;;;;;13.90;6.87;;;;;;;0.19;56.56;100669.47;1672978;83;21054;-70
2022/12/14 10:09:33;;;;;;;13.22;5.92;;;;;;;0.26;56.62;100674.00;1740282;80;21570;-70
2022/12/14 10:12:28;;;;;;;12.75;6.17;;;;;;;0.33;56.22;100668.56;1738996;80;21056;-71
2022/12/14 10:15:33;;;;;;;13.30;5.55;;;;;;;0.39;55.95;100675.30;1725238;82;21120;-70
2022/12/14 10:18:27;;;;;;;9.35;3.87;;;;;;;0.41;55.49;100676.54;1742677;80;21108;-71
2022/12/14 10:21:17;;;;;;;12.23;4.83;;;;;;;0.45;55.21;100675.53;1739232;80;21048;-70
2022/12/14 10:23:51;;;;;;;10.00;4.75;;;;;;;0.48;55.39;100672.38;1697478;82;21549;-74
2022/12/14 10:29:18;;;;;;;11.28;4.90;;;;;;;0.48;55.33;100662.03;1797271;78;22169;-72
2022/12/14 10:32:15;;;;;;;11.15;4.53;;;;;;;0.57;54.46;100664.75;1771517;79;20969;-72
2022/12/14 10:34:42;;;;;;;10.05;4.97;;;;;;;0.57;53.93;100665.20;1762958;80;21141;-73
2022/12/14 10:37:25;;;;;;;10.70;5.12;;;;;;;0.51;54.21;100664.97;1762833;79;21296;-72
2022/12/14 10:40:15;;;;;;;12.70;4.75;;;;;;;0.57;54.09;100666.05;1767771;80;20880;-73
2022/12/14 10:43:15;;;;;;;11.80;4.70;;;;;;;0.61;53.57;100664.22;1736392;80;20931;-73
2022/12/14 10:45:59;;;;;;;12.13;5.28;;;;;;;0.63;53.67;100671.48;1736493;81;21006;-73
2022/12/14 10:48:54;;;;;;;9.28;3.58;;;;;;;0.64;52.80;100666.68;1735815;81;21244;-73
2022/12/14 10:51:37;;;;;;;9.33;4.62;;;;;;;0.61;52.64;100662.92;1734989;81;21054;-73
2022/12/14 10:54:32;;;;;;;10.88;5.22;;;;;;;0.62;52.71;100661.55;1735520;81;21437;-73
2022/12/14 10:56:59;;;;;;;8.75;4.20;;;;;;;0.68;52.57;100664.40;1718642;81;21118;-73
2022/12/14 10:59:34;;;;;;;8.80;4.40;;;;;;;0.68;52.38;100663.94;1719852;82;21117;-73
2022/12/14 11:02:15;;;;;;;9.68;4.78;;;;;;;0.69;52.71;100669.53;1721067;82;22008;-73
2022/12/14 11:04:53;;;;;;;9.95;4.03;;;;;;;0.68;52.75;100665.69;1719764;82;21555;-74
2022/12/14 11:07:33;;;;;;;9.25;3.05;;;;;;;0.62;52.51;100654.23;1724702;81;21094;-74
2022/12/14 11:10:19;;;;;;;8.00;3.02;;;;;;;0.53;51.12;100677.41;1730445;81;22204;-74
2022/12/14 11:13:17;;;;;;;9.95;4.10;;;;;;;0.41;51.86;100674.78;1719824;81;21117;-73
2022/12/14 11:15:47;;;;;;;13.65;5.60;;;;;;;0.39;52.87;100677.02;1713351;81;21180;-74
2022/12/14 11:18:28;;;;;;;13.38;5.55;;;;;;;0.41;53.98;100676.08;1711428;81;21069;-73
2022/12/14 11:21:03;;;;;;;12.60;5.83;;;;;;;0.41;54.53;100671.36;1716478;82;21098;-74
2022/12/14 11:23:43;;;;;;;9.95;5.25;;;;;;;0.45;54.97;100666.47;1719196;82;21054;-73
2022/12/14 11:27:38;;;;;;;11.05;5.42;;;;;;;0.51;55.22;100668.41;1791245;78;22660;-72
2022/12/14 11:30:06;;;;;;;10.45;5.65;;;;;;;0.68;55.09;100669.12;1775686;78;20982;-71
2022/12/14 11:32:32;;;;;;;9.90;5.62;;;;;;;0.83;55.05;100674.69;1763974;80;22238;-73
2022/12/14 11:34:59;;;;;;;9.95;5.28;;;;;;;1.00;54.78;100679.27;1764251;80;21596;-72
2022/12/14 11:37:29;;;;;;;13.78;6.15;;;;;;;1.14;53.92;100682.19;1766813;80;21020;-73
2022/12/14 11:40:00;;;;;;;14.55;7.40;;;;;;;1.25;52.95;100674.87;1763623;78;21559;-72
2022/12/14 11:42:28;;;;;;;20.40;9.23;;;;;;;1.39;51.66;100674.83;1771024;80;21172;-73
2022/12/14 11:44:55;;;;;;;12.20;5.03;;;;;;;1.48;49.92;100684.87;1732172;81;21295;-73
2022/12/14 11:47:25;;;;;;;12.03;6.05;;;;;;;1.52;48.65;100683.84;1661525;83;21091;-73
2022/12/14 11:49:53;;;;;;;10.43;4.45;;;;;;;1.43;48.21;100681.14;1711131;81;21100;-73
2022/12/14 11:52:42;;;;;;;11.78;5.65;;;;;;;1.39;48.30;100694.27;1714629;82;21562;-72
2022/12/14 11:55:16;;;;;;;12.68;5.95;;;;;;;1.36;48.38;100695.25;1719141;82;21110;-73
2022/12/14 11:57:54;;;;;;;9.95;4.75;;;;;;;1.30;48.75;100698.05;1720611;81;21155;-73
2022/12/14 12:00:41;;;;;;;8.75;3.67;;;;;;;1.34;47.73;100705.27;1686651;82;21074;-73
2022/12/14 12:03:16;;;;;;;6.25;3.35;;;;;;;1.33;47.89;100710.91;1724421;81;21106;-74
2022/12/14 12:05:43;;;;;;;7.47;3.65;;;;;;;1.30;47.44;100718.33;1716415;82;21693;-74
2022/12/14 12:08:24;;;;;;;7.67;2.40;;;;;;;1.25;47.14;100712.93;1713288;82;21631;-73
2022/12/14 12:10:53;;;;;;;7.45;3.75;;;;;;;1.24;47.58;100719.00;1710704;81;21612;-75
2022/12/14 12:13:27;;;;;;;9.00;3.58;;;;;;;1.26;48.04;100715.47;1719879;82;21098;-74
2022/12/14 12:16:12;;;;;;;6.37;2.92;;;;;;;1.30;47.92;100712.31;1692333;81;21065;-73
2022/12/14 12:18:49;;;;;;;8.83;4.78;;;;;;;1.37;47.74;100715.06;1711318;82;21071;-72
2022/12/14 12:21:23;;;;;;;6.97;3.17;;;;;;;1.47;47.84;100721.61;1705733;82;22184;-72
2022/12/14 12:24:07;;;;;;;5.87;2.77;;;;;;;1.55;47.43;100723.92;1716487;83;21162;-73
2022/12/14 12:26:41;;;;;;;6.75;3.37;;;;;;;1.63;47.08;100727.52;1713032;81;20993;-73
2022/12/14 12:29:19;;;;;;;7.65;3.75;;;;;;;1.65;47.04;100729.16;1764464;80;21007;-74
2022/12/14 12:31:51;;;;;;;9.98;4.08;;;;;;;1.69;46.65;100730.34;1761056;80;21738;-74
2022/12/14 12:34:27;;;;;;;7.05;3.10;;;;;;;1.71;47.00;100733.73;1733693;80;21019;-74
2022/12/14 12:36:54;;;;;;;8.98;4.47;;;;;;;1.79;46.72;100732.98;1766937;79;22140;-72
2022/12/14 12:39:24;;;;;;;9.13;3.85;;;;;;;1.86;46.41;100740.92;1748283;79;21040;-73
2022/12/14 12:42:01;;;;;;;10.35;4.58;;;;;;;1.90;46.69;100749.00;1749785;79;21104;-73
2022/12/14 12:45:05;;;;;;;8.98;4.35;;;;;;;1.92;46.13;100738.57;1658782;83;21058;-73
2022/12/14 12:47:53;;;;;;;12.45;5.42;;;;;;;1.97;45.96;100751.75;1761785;79;21016;-72
2022/12/14 12:50:25;;;;;;;10.55;5.15;;;;;;;2.26;45.34;100744.58;1765981;80;21314;-74
2022/12/14 12:53:05;;;;;;;11.60;6.10;;;;;;;3.54;44.21;100750.89;1768112;79;21043;-72
2022/12/14 12:55:36;;;;;;;9.78;4.55;;;;;;;3.86;43.27;100755.09;1758354;79;21054;-73
2022/12/14 12:58:08;;;;;;;10.48;6.28;;;;;;;3.74;42.78;100753.06;1754279;80;21074;-73
2022/12/14 13:00:32;;;;;;;9.20;4.22;;;;;;;3.65;42.79;100759.53;1752442;80;21535;-71
2022/12/14 13:03:24;;;;;;;8.45;4.22;;;;;;;3.64;42.09;100757.83;1733215;80;21535;-72
2022/12/14 13:05:53;;;;;;;8.40;4.50;;;;;;;3.79;41.50;100757.59;1759334;79;21150;-71
2022/12/14 13:08:31;;;;;;;8.00;4.45;;;;;;;4.45;40.48;100757.95;1758087;80;21027;-71
2022/12/14 13:11:00;;;;;;;13.68;7.75;;;;;;;4.94;40.01;100766.84;1760140;79;21302;-72
2022/12/14 13:13:30;;;;;;;10.20;6.60;;;;;;;5.23;40.36;100762.77;1769054;80;21059;-68
2022/12/14 13:16:19;;;;;;;8.70;4.40;;;;;;;5.15;40.23;100773.59;1754336;79;21205;-76
2022/12/14 13:18:52;;;;;;;8.78;3.55;;;;;;;4.82;39.57;100776.13;1750972;80;21034;-73
2022/12/14 13:21:32;;;;;;;6.65;2.75;;;;;;;4.25;39.71;100774.53;1759315;80;21007;-79
2022/12/14 13:23:58;;;;;;;6.12;2.90;;;;;;;3.71;40.02;100782.66;1754145;80;21086;-79
2022/12/14 13:26:46;;;;;;;8.63;3.17;;;;;;;3.23;40.92;100788.66;1755946;79;21138;-78
2022/12/14 13:29:34;;;;;;;5.95;2.92;;;;;;;2.86;41.85;100780.25;1753511;80;22227;-71
2022/12/14 13:32:19;;;;;;;14.47;7.10;;;;;;;2.57;42.62;100779.70;1757296;79;21022;-72
2022/12/14 13:35:16;;;;;;;23.15;10.53;;;;;;;2.29;43.21;100787.77;1757991;80;21043;-73
2022/12/14 13:38:03;;;;;;;13.28;6.40;;;;;;;2.03;43.75;100789.16;1762115;79;21000;-72
2022/12/14 13:40:58;;;;;;;11.30;5.47;;;;;;;1.81;44.20;100796.87;1751204;80;21540;-73
2022/12/14 13:43:53;;;;;;;33.35;17.12;;;;;;;1.52;44.76;100798.41;1759697;80;22951;-71
2022/12/14 13:46:24;;;;;;;60.67;29.77;;;;;;;1.29;45.55;100803.52;1758357;80;21048;-72
2022/12/14 13:48:54;;;;;;;27.50;14.63;;;;;;;1.12;46.22;100801.94;1752773;80;20992;-71
2022/12/14 13:51:36;;;;;;;20.37;13.22;;;;;;;0.99;46.63;100804.08;1759498;80;21047;-70
2022/12/14 13:54:06;;;;;;;20.60;13.65;;;;;;;0.87;47.11;100810.52;1752264;80;21051;-71
2022/12/14 13:56:36;;;;;;;16.10;8.85;;;;;;;0.78;47.56;100809.53;1762280;79;21138;-74
2022/12/14 13:59:31;;;;;;;20.12;10.60;;;;;;;0.68;47.89;100810.28;1753511;80;21003;-73
2022/12/14 14:02:00;;;;;;;18.70;8.78;;;;;;;0.60;48.15;100813.55;1739689;80;21012;-73
2022/12/14 14:04:30;;;;;;;18.10;9.33;;;;;;;0.54;48.47;100812.48;1753691;80;21146;-72
2022/12/14 14:07:25;;;;;;;17.10;9.65;;;;;;;0.48;48.71;100817.38;1760000;80;21035;-73
2022/12/14 14:09:59;;;;;;;16.17;8.73;;;;;;;0.45;48.99;100816.63;1708882;82;22012;-73
2022/12/14 14:12:33;;;;;;;15.18;8.55;;;;;;;0.39;49.33;100820.70;1700836;83;21034;-73
2022/12/14 14:15:18;;;;;;;18.75;9.75;;;;;;;0.32;49.43;100825.21;1769914;80;21543;-73
2022/12/14 14:17:45;;;;;;;17.52;8.45;;;;;;;0.23;49.64;100825.05;1718862;80;21505;-72
2022/12/14 14:20:32;;;;;;;17.82;10.05;;;;;;;0.15;49.88;100829.60;1751701;80;21105;-73
2022/12/14 14:23:20;;;;;;;20.88;7.80;;;;;;;0.08;50.14;100839.28;1696018;80;22191;-73
2022/12/14 14:26:21;;;;;;;17.37;9.68;;;;;;;-0.03;50.55;100834.44;1762334;79;21956;-73
2022/12/14 14:28:51;;;;;;;24.15;10.08;;;;;;;-0.15;50.84;100837.81;1770719;80;21806;-73
2022/12/14 14:31:18;;;;;;;20.12;9.03;;;;;;;-0.27;51.21;100836.41;1773399;79;21034;-73
2022/12/14 14:33:51;;;;;;;25.82;12.18;;;;;;;-0.34;51.49;100834.89;1773603;80;21085;-73